Terminal Aerodrome Forecast
Issued by NWS Rapid City, SD

Home | Current Version | Previous Version | Graphics & Text | Print | Product List | Glossary On
Versions: 1 2 3 4 5 6 7 8 9 10 11 12 13 14 15 16 17 18
000
FTUS43 KUNR 131500 AAA
TAFRAP
TAF AMD
KRAP 131529Z 1315/1412 34025G35KT P6SM BKN025 BKN050
      TEMPO 1315/1319 -SN BKN015
     FM131900 35025G35KT P6SM SCT030 BKN100
     FM140000 35015KT P6SM SCT250=

USA.gov is the U.S. government's official web portal to all federal, state and local government web resources and services.